Wetterstation Vordersexau
Wetterdaten: Juli 2016
Datum Temp. A. Feuchte A. Luftdruck Regen Wind Richtung Taupunkt Windchill Windben
01.07.2016 22,6 C 66 % 1014,2 hPa 0,0 l/m 5,7 km/h O-SO 15,4 C 22,2 C 3,2 km/h
02.07.2016 17,0 C 81 % 1015,1 hPa 6,6 l/m 4,1 km/h SO 13,7 C 16,3 C 2,3 km/h
03.07.2016 17,5 C 67 % 1019,3 hPa 0,0 l/m 2,4 km/h SO 10,7 C 17,3 C 1,3 km/h
04.07.2016 21,6 C 63 % 1018,0 hPa 0,0 l/m 0,7 km/h W 13,4 C 21,6 C 0,4 km/h
05.07.2016 22,0 C 66 % 1015,3 hPa 0,0 l/m 2,1 km/h SO 14,6 C 21,9 C 1,2 km/h
11.07.2016 27,8 C 56 % 995,1 hPa 5,2 l/m 15,4 km/h W-SW 17,7 C 27,1 C 8,6 km/h
12.07.2016 19,3 C 80 % 1011,9 hPa 2,1 l/m 0,4 km/h SO 15,6 C 19,3 C 0,2 km/h
13.07.2016 15,4 C 80 % 1013,7 hPa 11,9 l/m 3,5 km/h W-SW 11,8 C 14,8 C 1,9 km/h
14.07.2016 14,7 C 75 % 1018,0 hPa 4,7 l/m 1,9 km/h W-SW 10,1 C 14,5 C 1,1 km/h
15.07.2016 16,4 C 67 % 1023,7 hPa 0,0 l/m 0,6 km/h SO 9,5 C 16,4 C 0,3 km/h
16.07.2016 18,5 C 62 % 1023,2 hPa 0,0 l/m 1,1 km/h O-SO 10,1 C 18,5 C 0,6 km/h
17.07.2016 22,7 C 60 % 1020,0 hPa 0,0 l/m 0,7 km/h N-NO 13,6 C 22,7 C 0,4 km/h
18.07.2016 25,1 C 61 % 1018,6 hPa 0,0 l/m 1,7 km/h N-NO 16,2 C 25,0 C 1,0 km/h
19.07.2016 26,3 C 62 % 1016,8 hPa 0,0 l/m 0,8 km/h W-NW 17,7 C 26,3 C 0,4 km/h
20.07.2016 27,9 C 58 % 1012,7 hPa 0,0 l/m 1,2 km/h W 17,5 C 27,9 C 0,7 km/h
21.07.2016 26,0 C 64 % 1013,2 hPa 2,1 l/m 1,6 km/h N 18,0 C 25,9 C 0,9 km/h
22.07.2016 21,7 C 73 % 1012,9 hPa 5,7 l/m 1,7 km/h SO 16,4 C 21,6 C 0,9 km/h
23.07.2016 23,0 C 69 % 1014,8 hPa 0,0 l/m 3,0 km/h SO 16,5 C 22,8 C 1,6 km/h
24.07.2016 23,6 C 69 % 1016,6 hPa 0,0 l/m 0,6 km/h N-NO 17,1 C 23,6 C 0,4 km/h
25.07.2016 24,0 C 67 % 1016,8 hPa 0,0 l/m 0,6 km/h N-NO 16,8 C 24,0 C 0,4 km/h
26.07.2016 24,6 C 63 % 1016,7 hPa 0,0 l/m 2,0 km/h N-NO 16,2 C 24,6 C 1,1 km/h
27.07.2016 23,3 C 65 % 1015,6 hPa 0,0 l/m 0,9 km/h N-NO 15,7 C 23,2 C 0,5 km/h
28.07.2016 22,4 C 65 % 1015,0 hPa 0,0 l/m 4,3 km/h O-SO 15,0 C 22,2 C 2,4 km/h
29.07.2016 19,3 C 80 % 1014,5 hPa 4,7 l/m 0,9 km/h O-NO 15,6 C 19,2 C 0,5 km/h
Min-Datum 16.07.16 20.07.16 11.07.16 8 Tage 01.07.16 - 16.07.16 16.07.16 01.07.16
Min-Zeit 05:56 16:56 11:56 - 00:56 - 05:56 05:56 00:56
Minimum 7,9 C 26 % 983,6 hPa - 0,0 km/h - 5,5 C 7,9 C 0,0 km/h
Max-Datum 20.07.16 01.07.16 16.07.16 13.07.16 11.07.16 - 21.07.16 20.07.16 11.07.16
Max-Zeit 17:56 05:56 08:56 13:56 15:56 - 08:56 17:56 15:56
Maximum 40,4 C 85 % 1024,7 hPa 11,9 l/m 26,6 km/h
W-SW
- 21,4 C 40,4 C 14,8 km/h
W-SW
Durchschnitt 21,8 C 67 % 1015,5 hPa #42,9 l/m 2,4 km/h SO 14,8 C 21,6 C 1,3 km/h

Durchschnitt Minimum Temp.14,1 C
Durchschnitt Maximum Temp.31,2 C
www.sexauwetter.de